SBTT/TBT METAR and TAF weather

Enter ICAO airport designator
Station Type Date Time Source
SBTT METAR 2019/12/11 12:00 UTC NOAA

SBTT 111200Z 00000KT CAVOK 23/22 Q1011


Station Type Date Time Source
SBTT Decoded METAR 2019/12/11 12:00 UTC NOAA

Tabatinga, Brazil (SBTT) 03-40S 069-40W
Dec 11, 2019 - 07:00 AM EST / 2019.12.11 1200 UTC
Wind: Calm:0
Visibility: greater than 7 mile(s):0
Temperature: 73 F (23 C)
Dew Point: 71 F (22 C)
Relative Humidity: 94%
Pressure (altimeter): 29.85 in. Hg (1011 hPa)
ob: SBTT 111200Z 00000KT CAVOK 23/22 Q1011
cycle: 12

Station Type Date Time Source
SBTT TAF 2019/12/11 12:54 UTC NOAA

TAF TAF SBTT 110900Z 1112/1212 29005KT 9999 SCT015 TX30/1119Z TN23/1211Z PROB30 1112/1114 BKN010
BECMG 1119/1121 25005KT SCT020
RMK PHD

Example: see airport list